• Join FlightAware (Why Join?)
  • Login
  • US Flag 
Trick or treat! (Boo!!) 
08:25PM EDT


 

Airport Tracker/Info


-or-


 

Live Flight TrackerFlight Track Log ✈ QXE2490 ✈ 12-May-2013 ✈ KSEA - KBLI

Flight Track Log - Related Links

Times and Time Zones

All times are in EDT time to prevent confusion due to time zone crossing. See the QXE2490 flight status page for this flight to view local times or setup timezone preferences in your user account.

Time Position Orientation Groundspeed Altitude Reporting Facility
EDT Latitude Longitude Course Direction KTS MPH feet Rate Location/Type
09:05PM 47.4344 -122.3075 354° North 142 163 1,400  Level Seattle Center
09:06PM 47.4069 -122.3767 240° Southwest 188 216 3,200 1,740 Climbing Seattle Center
09:07PM 47.3981 -122.4614 261° West 214 246 5,300 1,260 Climbing Seattle Center
09:08PM 47.4008 -122.5703 272° West 248 285 5,800 540 Climbing Seattle Center
09:09PM 47.4322 -122.6569 298° West 250 288 6,500 1,140 Climbing Seattle Center
09:10PM 47.5083 -122.6719 352° North 285 328 8,100 1,620 Climbing Seattle Center
09:11PM 47.8575 -122.3791 354° North  Level Estimated
09:11PM 47.5872 -122.6444 13° North 301 346 9,800  Level Seattle Center
09:12PM 47.6569 -122.5658 37° Northeast 315 362 11,300 1,020 Climbing Seattle Center
09:13PM 47.7322 -122.4831 36° Northeast 338 389 11,900 300 Climbing Seattle Center
09:14PM 47.8064 -122.4028 36° Northeast 331 381 12,000  Climbing Seattle Center
09:16PM 47.8703 -122.3333 36° Northeast 324 373 12,000  Level Seattle Center
09:17PM 47.9475 -122.2850 23° Northeast 318 366 12,000  Level Seattle Center
09:17PM 48.0347 -122.3106 349° North 303 349 12,000  Level Seattle Center
09:18PM 48.1181 -122.3389 347° North 307 353 12,000  Level Seattle Center
09:19PM 48.2072 -122.3639 349° North 307 353 12,000  Level Seattle Center
09:20PM 48.2911 -122.3853 350° North 309 356 12,000 -420 Level Seattle Center
09:22PM 48.3803 -122.4106 349° North 310 357 11,200 -1,200 Descending Seattle Center
09:23PM 48.4628 -122.4364 348° North 284 327 9,500 -1,680 Descending Seattle Center
09:24PM 48.5353 -122.4578 349° North 267 307 7,900 -1,920 Descending Seattle Center
09:25PM 48.6106 -122.4814 348° North 272 313 5,700 -2,280 Descending Seattle Center
09:25PM 48.6500 -122.4833 358° North 280 322 4,300 -1,380 Descending Vancouver Center
09:26PM 48.7167 -122.5333 334° Northwest 270 311 3,500 -420 Descending Vancouver Center
09:27PM 48.7833 -122.5833 334° Northwest 260 299 3,500 -360 Level Vancouver Center
09:28PM 48.8500 -122.6000 351° North 260 299 2,800 -720 Descending Vancouver Center
09:29PM 48.9000 -122.5833 12° North 230 265 2,100 -720 Descending Vancouver Center